• Join FlightAware (Why Join?)
  • Login
  • US Flag 
01:17PM EDT


 

Airport Tracker/Info


-or-


 

Live Flight TrackerFlight Track Log ✈ JBU41 ✈ 11-May-2013 ✈ KJFK - KMCO

Flight Track Log - Related Links

Times and Time Zones

All times are in EDT time to prevent confusion due to time zone crossing. See the JBU41 flight status page for this flight to view local times or setup timezone preferences in your user account.

Time Position Orientation Groundspeed Altitude Reporting Facility
EDT Latitude Longitude Course Direction KTS MPH feet Rate Location/Type
11:07AM 40.6167 -73.7833 146° Southeast 144 166 1,600  Level New York TRACON
11:09AM 40.3604 -73.5167 180° South  Level FlightAware Approximate
11:09AM 40.5433 -73.7261 149° Southeast 183 211 5,500  Level New York Center
11:10AM 40.2751 -73.4376 159° South  Level FlightAware Approximate
11:10AM 40.4972 -73.6558 131° Southeast 224 258 9,000  Level New York Center
11:11AM 40.1902 -73.3449 146° Southeast  Level FlightAware Approximate
11:11AM 40.4381 -73.6014 145° Southeast 273 314 10,700  Level New York Center
11:12AM 40.0971 -73.2622 146° Southeast  Level FlightAware Approximate
11:12AM 40.3389 -73.5675 165° South 321 369 12,100  Level New York Center
11:13AM 40.2497 -73.5531 173° South 364 419 14,300 2,280 Climbing New York Center
11:14AM 40.1378 -73.5294 171° South 374 430 16,800 2,040 Climbing New York Center
11:15AM 40.0411 -73.5553 192° South 367 422 18,500 1,620 Climbing New York Center
11:17AM 39.8486 -73.6969 209° Southwest 369 425 22,000 1,620 Climbing Washington Center
11:18AM 39.7581 -73.7722 213° Southwest 383 441 23,600 1,920 Climbing Washington Center
11:19AM 39.6653 -73.8500 213° Southwest 393 452 25,800 1,980 Climbing Washington Center
11:20AM 39.5767 -73.9197 211° Southwest 393 452 27,500 1,380 Climbing Washington Center
11:21AM 39.4861 -73.9969 213° Southwest 387 445 28,700 1,140 Climbing Washington Center
11:22AM 39.3953 -74.0717 212° Southwest 387 445 29,900 1,320 Climbing Washington Center
11:23AM 39.3025 -74.1458 212° Southwest 392 451 31,400 1,560 Climbing Washington Center
11:24AM 39.2117 -74.2200 212° Southwest 392 451 33,100 1,560 Climbing Washington Center
11:25AM 39.1228 -74.2914 212° Southwest 387 445 34,600 1,140 Climbing Washington Center
11:26AM 39.0567 -74.3486 214° Southwest 376 433 35,400 660 Climbing Washington Center
11:27AM 38.9639 -74.4222 212° Southwest 370 426 36,000 300 Climbing Washington Center
11:28AM 38.8728 -74.4958 212° Southwest 370 426 36,000  Level Washington Center
11:29AM 38.7817 -74.5664 211° Southwest 381 438 36,000  Level Washington Center
11:30AM 38.6883 -74.6422 212° Southwest 393 452 36,000  Level Washington Center
11:31AM 38.5953 -74.7178 212° Southwest 393 452 36,000  Level Washington Center
11:32AM 38.4997 -74.7906 211° Southwest 403 464 36,000  Level Washington Center
11:33AM 38.4064 -74.8658 212° Southwest 403 464 36,000  Level Washington Center
11:34AM 38.3131 -74.9408 212° Southwest 408 470 36,000  Level Washington Center
11:35AM 38.2197 -75.0131 211° Southwest 408 470 36,000 -60 Level Washington Center
11:36AM 38.1325 -75.0928 216° Southwest 402 463 35,900  Descending Washington Center
11:37AM 38.0389 -75.1594 209° Southwest 402 463 36,000  Climbing Washington Center
11:38AM 37.9453 -75.2336 212° Southwest 402 463 35,900 -60 Descending Washington Center
11:39AM 37.8536 -75.3025 211° Southwest 402 463 35,900  Level Washington Center
11:40AM 37.7600 -75.3764 212° Southwest 402 463 36,000  Climbing Washington Center
11:41AM 37.6642 -75.4450 210° Southwest 407 468 36,000  Level Washington Center
11:42AM 37.5661 -75.5106 208° Southwest 407 468 36,000  Level Washington Center
11:43AM 37.4661 -75.5631 203° Southwest 396 456 36,000 -60 Level Washington Center
11:44AM 37.3639 -75.6181 203° Southwest 396 456 35,900 -60 Descending Washington Center
11:45AM 37.2639 -75.6700 202° Southwest 396 456 35,900  Level Washington Center
11:46AM 37.1614 -75.7247 203° Southwest 396 456 36,000  Climbing Washington Center
11:47AM 37.0572 -75.7767 202° Southwest 401 461 36,000  Level Washington Center
11:48AM 36.9506 -75.8311 202° Southwest 396 456 36,000  Level Washington Center
11:49AM 36.8483 -75.8853 203° Southwest 403 464 36,000  Level Washington Center
11:50AM 36.7481 -75.9367 202° Southwest 403 464 36,000 -60 Level Washington Center
11:51AM 36.6478 -75.9906 203° Southwest 396 456 35,900 -60 Descending Washington Center
11:52AM 36.5347 -76.0494 203° Southwest 396 456 35,900  Level Washington Center
11:53AM 36.4325 -76.1031 203° Southwest 396 456 36,000  Climbing Washington Center
11:54AM 36.3278 -76.1592 203° Southwest 396 456 36,000 -60 Level Washington Center
11:55AM 36.2253 -76.2100 202° Southwest 396 456 35,900  Descending Washington Center
11:56AM 36.1208 -76.2631 202° Southwest 396 456 36,000  Climbing Washington Center
11:57AM 36.0161 -76.3161 202° Southwest 396 456 36,000  Level Washington Center
11:58AM 35.9094 -76.3717 203° Southwest 401 461 36,000  Level Washington Center
11:59AM 35.8067 -76.4269 204° Southwest 401 461 36,000  Level Washington Center
12:00PM 35.7042 -76.4719 200° South 401 461 36,000  Level Washington Center
12:01PM 35.6017 -76.5269 204° Southwest 401 461 36,000  Level Washington Center
12:02PM 35.4989 -76.5794 203° Southwest 401 461 36,000  Level Washington Center
12:03PM 35.3942 -76.6317 202° Southwest 401 461 36,000  Level Washington Center
12:04PM 35.2894 -76.6864 203° Southwest 401 461 36,000  Level Washington Center
12:05PM 35.1844 -76.7383 202° Southwest 406 467 36,000  Level Washington Center
12:06PM 35.0881 -76.7928 205° Southwest 411 473 36,000  Level Washington Center
12:07PM 34.9811 -76.8444 202° Southwest 417 480 36,000  Level Washington Center
12:08PM 34.8742 -76.8983 202° Southwest 417 480 36,000  Level Washington Center
12:09PM 34.7544 -76.9572 202° Southwest 417 480 36,000  Level Washington Center
12:10PM 34.6411 -77.0108 201° Southwest 422 486 36,000  Level Washington Center
12:11PM 34.5278 -77.0694 203° Southwest 434 499 36,000  Level Washington Center
12:12PM 34.4125 -77.1253 202° Southwest 440 506 36,000  Level Washington Center
12:13PM 34.3011 -77.1783 201° Southwest 440 506 36,000  Level Washington Center
12:14PM 34.1897 -77.2339 202° Southwest 440 506 36,000  Level Washington Center
12:15PM 34.0806 -77.2869 202° Southwest 434 499 36,000 -60 Level Washington Center
12:16PM 33.9692 -77.3397 201° Southwest 439 505 35,900  Descending Washington Center
12:17PM 33.7908 -77.4253 202° Southwest 432 497 36,000  Climbing Jacksonville Center
12:18PM 33.6806 -77.4769 201° Southwest 432 497 36,000  Level Jacksonville Center
12:19PM 33.5681 -77.5336 203° Southwest 432 497 36,000 -60 Level Jacksonville Center
12:20PM 33.4536 -77.5878 202° Southwest 432 497 35,900  Descending Jacksonville Center
12:21PM 33.3392 -77.6444 202° Southwest 437 503 36,000  Climbing Jacksonville Center
12:22PM 33.2264 -77.6958 201° Southwest 443 510 36,000  Level Jacksonville Center
12:23PM 33.1142 -77.7519 203° Southwest 443 510 36,000  Level Jacksonville Center
12:24PM 33.0036 -77.8053 202° Southwest 443 510 36,000  Level Jacksonville Center
12:25PM 32.8908 -77.8561 201° Southwest 443 510 36,000  Level Jacksonville Center
12:26PM 32.7761 -77.9094 201° Southwest 443 510 36,000 -60 Level Jacksonville Center
12:27PM 32.6633 -77.9650 203° Southwest 443 510 35,900 -60 Descending Jacksonville Center
12:28PM 32.5486 -78.0156 200° South 443 510 35,900  Level Jacksonville Center
12:29PM 32.4317 -78.0686 201° Southwest 443 510 36,000  Climbing Jacksonville Center
12:30PM 32.3169 -78.1264 203° Southwest 448 516 36,000  Level Jacksonville Center
12:31PM 32.2022 -78.1889 205° Southwest 448 516 36,000  Level Jacksonville Center
12:32PM 32.0842 -78.2708 210° Southwest 457 526 36,000 -60 Level Jacksonville Center
12:33PM 31.9722 -78.3425 209° Southwest 457 526 35,900 -120 Descending Jacksonville Center
12:34PM 31.8636 -78.4067 207° Southwest 452 520 35,800 -600 Descending Jacksonville Center
12:35PM 31.7553 -78.4656 205° Southwest 452 520 34,700 -1,140 Descending Jacksonville Center
12:36PM 31.6383 -78.5297 205° Southwest 454 522 33,600 -1,080 Descending Jacksonville Center
12:37PM 31.5217 -78.5914 204° Southwest 454 522 32,600 -1,080 Descending Jacksonville Center
12:38PM 31.4086 -78.6453 202° Southwest 447 514 31,500 -1,140 Descending Jacksonville Center
12:39PM 31.2958 -78.7061 205° Southwest 454 522 30,400 -1,020 Descending Jacksonville Center
12:40PM 31.1703 -78.7628 201° Southwest 460 529 29,500 -900 Descending Jacksonville Center
12:41PM 31.0489 -78.8142 200° South 465 535 28,700 -720 Descending Jacksonville Center
12:42PM 30.9433 -78.8503 196° South 457 526 28,100 -360 Descending Jacksonville Center
12:43PM 30.8197 -78.8967 198° South 457 526 28,000 -60 Descending Jacksonville Center
12:44PM 30.7003 -78.9475 200° South 462 532 28,000 -60 Level Jacksonville Center
12:45PM 30.6147 -78.9808 199° South 459 528 27,900 -60 Descending Miami Center
12:46PM 30.4972 -79.0267 199° South 459 528 27,900  Level Miami Center
12:47PM 30.3714 -79.0769 199° South 470 541 27,900  Level Miami Center
12:48PM 30.2497 -79.1225 198° South 470 541 28,000  Climbing Miami Center
12:49PM 30.1303 -79.1725 200° South 462 532 28,000  Level Miami Center
12:50PM 29.9981 -79.2272 200° South 462 532 28,000  Level Miami Center
12:51PM 29.8783 -79.2725 198° South 468 539 28,000  Level Miami Center
12:52PM 29.7586 -79.3222 200° South 468 539 28,000  Level Miami Center
12:53PM 29.6450 -79.3842 205° Southwest 457 526 28,000 -60 Level Miami Center
12:54PM 29.5453 -79.4725 218° Southwest 447 514 27,900 -60 Descending Miami Center
12:55PM 29.4458 -79.5606 218° Southwest 457 526 27,900  Level Miami Center
12:56PM 29.3419 -79.6439 215° Southwest 462 532 28,000  Climbing Miami Center
12:57PM 29.2422 -79.7317 218° Southwest 462 532 28,000  Level Miami Center
12:58PM 29.1422 -79.8194 217° Southwest 462 532 28,000 -600 Level Miami Center
12:59PM 29.0425 -79.9044 217° Southwest 462 532 26,900 -1,920 Descending Miami Center
01:00PM 28.9592 -79.9969 224° Southwest 449 517 24,200 -3,300 Descending Miami Center
01:01PM 28.9231 -80.1169 251° West 409 471 20,300 -3,240 Descending Miami Center
01:02PM 28.8869 -80.2367 251° West 403 464 17,800 -1,860 Descending Miami Center
01:05PM 28.8167 -80.5000 253° West 354 407 14,000 -1,860 Descending Orlando TRACON
01:06PM 28.8000 -80.6167 261° West 349 402 11,500 -1,860 Descending Orlando TRACON
01:07PM 28.8000 -80.7167 270° West 294 338 10,300 -1,620 Descending Orlando TRACON
01:08PM 28.7833 -80.8000 257° West 276 318 8,300 -1,740 Descending Orlando TRACON
01:09PM 28.7833 -80.9000 270° West 266 306 6,700 -1,200 Descending Orlando TRACON
01:10PM 28.7667 -80.9667 254° West 263 303 6,000 -420 Descending Orlando TRACON
01:11PM 28.7667 -81.0500 270° West 199 229 6,000  Level Orlando TRACON
01:12PM 28.7500 -81.1000 249° West 197 227 6,000 -300 Level Orlando TRACON
01:13PM 28.7500 -81.1667 270° West 197 227 5,500 -540 Descending Orlando TRACON
01:14PM 28.7333 -81.2333 254° West 198 228 4,900 -840 Descending Orlando TRACON
01:15PM 28.7000 -81.2667 221° Southwest 181 208 3,800 -900 Descending Orlando TRACON
01:16PM 28.6500 -81.2833 196° South 165 190 3,100 -360 Descending Orlando TRACON
01:17PM 28.6167 -81.3000 204° Southwest 139 160 3,100 -300 Level Orlando TRACON
01:18PM 28.5833 -81.3167 204° Southwest 139 160 2,500 -360 Descending Orlando TRACON
01:19PM 28.5333 -81.3333 196° South 150 173 2,400 -120 Descending Orlando TRACON